createdAt,value
2022-07-31T00:00:27.333Z,13.10
2022-07-31T00:02:54.382Z,13.00
2022-07-31T00:05:21.599Z,13.00
2022-07-31T00:07:48.516Z,13.00
2022-07-31T00:10:15.564Z,12.90
2022-07-31T00:12:42.649Z,12.90
2022-07-31T00:15:10.864Z,12.80
2022-07-31T00:17:42.101Z,12.80
2022-07-31T00:20:13.445Z,12.80
2022-07-31T00:22:44.807Z,12.70
2022-07-31T00:25:13.264Z,12.70
2022-07-31T00:27:41.636Z,12.70
2022-07-31T00:30:09.937Z,12.60
2022-07-31T00:32:36.821Z,12.60
2022-07-31T00:35:04.134Z,12.60
2022-07-31T00:37:31.119Z,12.60
2022-07-31T00:39:58.499Z,12.50
2022-07-31T00:42:26.655Z,12.50
2022-07-31T00:44:53.579Z,12.50
2022-07-31T00:47:23.839Z,12.50
2022-07-31T00:49:52.978Z,12.50
2022-07-31T00:52:20.222Z,12.40
2022-07-31T00:54:47.346Z,12.40
2022-07-31T00:57:15.300Z,12.40
2022-07-31T00:59:42.349Z,12.40
2022-07-31T01:02:09.892Z,12.30
2022-07-31T01:04:37.083Z,12.30
2022-07-31T01:07:09.247Z,12.30
2022-07-31T01:09:36.329Z,12.30
2022-07-31T01:12:18.808Z,12.30
2022-07-31T01:14:52.571Z,12.30
2022-07-31T01:17:22.561Z,12.20
2022-07-31T01:19:51.790Z,12.20
2022-07-31T01:22:38.975Z,12.20
2022-07-31T01:25:15.832Z,12.20
2022-07-31T01:28:20.339Z,12.20
2022-07-31T01:30:56.092Z,12.20
2022-07-31T01:33:38.939Z,12.20
2022-07-31T01:36:16.508Z,12.20
2022-07-31T01:38:50.052Z,12.10
2022-07-31T01:41:21.378Z,12.10
2022-07-31T01:43:50.943Z,12.10
2022-07-31T01:46:19.977Z,12.10
2022-07-31T01:48:49.245Z,12.10
2022-07-31T01:51:18.672Z,12.00
2022-07-31T01:53:47.415Z,12.00
2022-07-31T01:56:18.761Z,12.00
2022-07-31T01:58:47.253Z,12.00
2022-07-31T02:01:34.378Z,12.00
2022-07-31T02:04:02.900Z,12.00
2022-07-31T02:06:31.446Z,11.90
2022-07-31T02:09:00.957Z,11.90
2022-07-31T02:11:28.261Z,11.90
2022-07-31T02:13:57.363Z,11.90
2022-07-31T02:16:27.030Z,11.90
2022-07-31T02:19:05.133Z,11.90
2022-07-31T02:21:32.071Z,11.90
2022-07-31T02:23:58.940Z,11.90
2022-07-31T02:26:27.591Z,11.90
2022-07-31T02:28:55.361Z,11.90
2022-07-31T02:31:25.399Z,12.00
2022-07-31T02:33:54.220Z,12.00
2022-07-31T02:36:22.730Z,12.00
2022-07-31T02:38:51.358Z,12.00
2022-07-31T02:41:20.098Z,12.00
2022-07-31T02:43:47.880Z,12.00
2022-07-31T02:46:21.188Z,12.00
2022-07-31T02:48:49.592Z,11.90
2022-07-31T02:51:18.435Z,11.90
2022-07-31T02:53:46.498Z,11.90
2022-07-31T02:56:15.767Z,11.90
2022-07-31T02:58:42.907Z,11.90
2022-07-31T03:01:18.502Z,11.80
2022-07-31T03:03:46.278Z,11.80
2022-07-31T03:06:13.800Z,11.90
2022-07-31T03:08:40.736Z,11.80
2022-07-31T03:11:08.139Z,11.90
2022-07-31T03:13:36.999Z,11.80
2022-07-31T03:16:07.390Z,11.90
2022-07-31T03:18:35.337Z,11.90
2022-07-31T03:21:02.546Z,11.90
2022-07-31T03:23:36.407Z,11.90
2022-07-31T03:26:16.406Z,11.90
2022-07-31T03:28:43.538Z,11.90
2022-07-31T03:31:10.784Z,11.90
2022-07-31T03:33:37.768Z,11.90
2022-07-31T03:36:05.905Z,11.90
2022-07-31T03:38:41.075Z,12.00
2022-07-31T03:41:15.261Z,12.00
2022-07-31T03:43:48.141Z,12.00
2022-07-31T03:46:22.354Z,12.00
2022-07-31T03:48:52.620Z,12.10
2022-07-31T03:51:20.252Z,12.10
2022-07-31T03:53:48.060Z,12.20
2022-07-31T03:56:35.776Z,12.30
2022-07-31T03:59:03.787Z,12.30
2022-07-31T04:01:58.331Z,12.40
2022-07-31T04:04:25.399Z,12.40
2022-07-31T04:07:10.825Z,12.50
2022-07-31T04:09:38.717Z,12.50
2022-07-31T04:12:07.017Z,12.50
2022-07-31T04:14:34.146Z,12.60
2022-07-31T04:17:01.117Z,12.70
2022-07-31T04:19:31.055Z,12.80
2022-07-31T04:21:58.780Z,12.90
2022-07-31T04:24:26.003Z,12.90
2022-07-31T04:27:12.758Z,12.90
2022-07-31T04:29:45.030Z,13.10
2022-07-31T04:32:12.295Z,13.10
2022-07-31T04:34:45.920Z,13.20
2022-07-31T04:37:12.816Z,13.20
2022-07-31T04:39:39.904Z,13.30
2022-07-31T04:42:11.116Z,13.30
2022-07-31T04:44:38.633Z,13.40
2022-07-31T04:47:07.347Z,13.50
2022-07-31T04:49:38.459Z,13.50
2022-07-31T04:52:06.678Z,13.60
2022-07-31T04:54:33.934Z,13.70
2022-07-31T04:57:00.891Z,13.80
2022-07-31T04:59:59.339Z,13.90
2022-07-31T05:02:15.204Z,14.00
2022-07-31T05:04:42.359Z,14.10
2022-07-31T05:07:09.281Z,14.30
2022-07-31T05:09:36.571Z,14.40
2022-07-31T05:12:06.481Z,14.60
2022-07-31T05:14:33.954Z,14.70
2022-07-31T05:17:00.932Z,14.90
2022-07-31T05:19:41.238Z,15.00
2022-07-31T05:22:23.064Z,15.20
2022-07-31T05:25:09.032Z,15.40
2022-07-31T05:27:38.928Z,15.40
2022-07-31T05:30:08.735Z,15.50
2022-07-31T05:32:36.591Z,15.60
2022-07-31T05:35:04.046Z,15.70
2022-07-31T05:37:32.757Z,16.00
2022-07-31T05:40:00.004Z,16.00
2022-07-31T05:42:45.570Z,16.00
2022-07-31T05:45:31.000Z,16.20
2022-07-31T05:47:58.072Z,16.30
2022-07-31T05:50:25.076Z,16.40
2022-07-31T05:52:51.981Z,16.50
2022-07-31T05:55:47.259Z,16.50
2022-07-31T05:58:40.190Z,16.60
2022-07-31T06:01:07.187Z,16.60
2022-07-31T06:03:51.441Z,16.70
2022-07-31T06:06:21.736Z,16.80
2022-07-31T06:08:49.493Z,16.90
2022-07-31T06:11:16.321Z,16.80
2022-07-31T06:13:43.409Z,17.00
2022-07-31T06:16:29.217Z,17.10
2022-07-31T06:18:56.101Z,17.20
2022-07-31T06:21:25.562Z,17.30
2022-07-31T06:23:54.484Z,17.40
2022-07-31T06:26:27.818Z,17.50
2022-07-31T06:28:54.916Z,17.70
2022-07-31T06:31:23.034Z,17.80
2022-07-31T06:33:53.876Z,17.90
2022-07-31T06:36:24.834Z,18.00
2022-07-31T06:38:58.543Z,18.10
2022-07-31T06:41:46.924Z,18.10
2022-07-31T06:44:30.056Z,18.20
2022-07-31T06:47:16.972Z,18.30
2022-07-31T06:50:03.232Z,18.40
2022-07-31T06:52:35.983Z,18.50
2022-07-31T06:55:03.494Z,18.50
2022-07-31T06:57:30.509Z,18.50
2022-07-31T06:59:57.417Z,18.60
2022-07-31T07:02:25.304Z,18.60
2022-07-31T07:05:04.371Z,18.70
2022-07-31T07:07:35.695Z,18.60
2022-07-31T07:10:04.953Z,18.60
2022-07-31T07:12:58.015Z,18.70
2022-07-31T07:15:25.342Z,18.70
2022-07-31T07:17:52.232Z,18.60
2022-07-31T07:20:27.208Z,18.60
2022-07-31T07:22:56.204Z,18.60
2022-07-31T07:25:35.389Z,18.60
2022-07-31T07:28:02.295Z,18.70
2022-07-31T07:30:29.259Z,18.70
2022-07-31T07:32:59.834Z,18.80
2022-07-31T07:35:32.044Z,18.70
2022-07-31T07:38:03.447Z,18.70
2022-07-31T07:40:31.210Z,18.60
2022-07-31T07:43:02.865Z,18.60
2022-07-31T07:45:30.691Z,18.70
2022-07-31T07:48:06.849Z,18.80
2022-07-31T07:51:09.755Z,18.80
2022-07-31T07:54:02.742Z,18.90
2022-07-31T07:56:52.715Z,19.00
2022-07-31T07:59:25.229Z,18.80
2022-07-31T08:02:12.304Z,18.90
2022-07-31T08:04:39.363Z,18.90
2022-07-31T08:07:06.507Z,19.00
2022-07-31T08:09:38.039Z,19.00
2022-07-31T08:12:05.797Z,19.00
2022-07-31T08:14:51.864Z,19.00
2022-07-31T08:17:37.740Z,19.10
2022-07-31T08:20:06.437Z,19.10
2022-07-31T08:22:33.712Z,19.20
2022-07-31T08:25:00.580Z,19.10
2022-07-31T08:27:39.251Z,19.00
2022-07-31T08:30:08.821Z,19.10
2022-07-31T08:32:36.140Z,19.10
2022-07-31T08:35:06.271Z,19.20
2022-07-31T08:37:59.182Z,19.30
2022-07-31T08:40:22.497Z,19.50
2022-07-31T08:42:49.620Z,19.60
2022-07-31T08:45:16.527Z,19.50
2022-07-31T08:47:50.313Z,19.50
2022-07-31T08:50:26.491Z,19.60
2022-07-31T08:52:56.763Z,19.80
2022-07-31T08:55:56.048Z,19.80
2022-07-31T08:58:25.074Z,19.80
2022-07-31T09:00:52.134Z,19.80
2022-07-31T09:03:19.531Z,19.70
2022-07-31T09:05:56.631Z,19.80
2022-07-31T09:08:24.065Z,19.90
2022-07-31T09:11:22.344Z,19.90
2022-07-31T09:14:04.387Z,19.90
2022-07-31T09:16:50.370Z,19.90
2022-07-31T09:19:51.982Z,19.90
2022-07-31T09:22:23.594Z,19.90
2022-07-31T09:24:51.390Z,20.10
2022-07-31T09:27:18.777Z,20.20
2022-07-31T09:29:49.227Z,20.30
2022-07-31T09:32:39.220Z,20.40
2022-07-31T09:35:15.568Z,20.40
2022-07-31T09:37:47.646Z,20.30
2022-07-31T09:40:41.171Z,20.30
2022-07-31T09:44:09.620Z,20.20
2022-07-31T09:46:46.725Z,20.20
2022-07-31T09:49:14.706Z,20.40
2022-07-31T09:51:47.129Z,20.40
2022-07-31T09:54:24.990Z,20.40
2022-07-31T09:56:52.342Z,20.10
2022-07-31T09:59:19.847Z,20.10
2022-07-31T10:01:51.158Z,20.00
2022-07-31T10:04:19.809Z,20.20
2022-07-31T10:06:51.565Z,20.30
2022-07-31T10:09:20.658Z,20.60
2022-07-31T10:12:12.445Z,20.70
2022-07-31T10:14:44.898Z,20.80
2022-07-31T10:17:14.698Z,20.90
2022-07-31T10:20:05.877Z,20.90
2022-07-31T10:23:22.617Z,20.70
2022-07-31T10:25:53.723Z,20.40
2022-07-31T10:28:22.093Z,20.20
2022-07-31T10:30:49.982Z,20.10
2022-07-31T10:33:42.530Z,20.30
2022-07-31T10:36:28.860Z,20.40
2022-07-31T10:39:10.203Z,20.60
2022-07-31T10:42:12.813Z,20.80
2022-07-31T10:44:46.810Z,20.70
2022-07-31T10:47:19.450Z,20.70
2022-07-31T10:50:00.722Z,20.60
2022-07-31T10:52:47.701Z,20.50
2022-07-31T10:55:25.148Z,20.40
2022-07-31T10:58:13.933Z,20.40
2022-07-31T11:01:08.234Z,20.40
2022-07-31T11:03:46.426Z,20.20
2022-07-31T11:06:44.647Z,20.00
2022-07-31T11:09:50.728Z,20.00
2022-07-31T11:13:01.800Z,20.20
2022-07-31T11:16:05.966Z,20.30
2022-07-31T11:19:06.316Z,20.50
2022-07-31T11:21:39.626Z,20.40
2022-07-31T11:24:21.229Z,20.50
2022-07-31T11:26:52.543Z,20.60
2022-07-31T11:29:58.624Z,20.80
2022-07-31T11:32:16.611Z,21.10
2022-07-31T11:34:53.561Z,21.20
2022-07-31T11:37:25.897Z,21.30
2022-07-31T11:39:54.484Z,21.30
2022-07-31T11:42:26.494Z,21.20
2022-07-31T11:45:10.783Z,21.30
2022-07-31T11:48:11.034Z,21.40
2022-07-31T11:50:39.936Z,21.30
2022-07-31T11:53:07.203Z,21.40
2022-07-31T11:55:48.686Z,21.30
2022-07-31T11:58:17.185Z,21.20
2022-07-31T12:00:52.606Z,21.20
2022-07-31T12:03:28.486Z,21.40
2022-07-31T12:05:55.981Z,21.60
2022-07-31T12:08:24.510Z,21.70
2022-07-31T12:10:56.272Z,21.70
2022-07-31T12:13:24.931Z,21.40
2022-07-31T12:16:05.017Z,21.40
2022-07-31T12:18:45.395Z,21.30
2022-07-31T12:21:12.834Z,21.20
2022-07-31T12:23:46.455Z,21.20
2022-07-31T12:26:22.742Z,21.30
2022-07-31T12:29:02.764Z,21.30
2022-07-31T12:31:32.443Z,21.50
2022-07-31T12:33:59.432Z,21.20
2022-07-31T12:36:26.922Z,21.20
2022-07-31T12:39:05.020Z,21.10
2022-07-31T12:41:42.386Z,20.90
2022-07-31T12:44:14.468Z,20.80
2022-07-31T12:46:41.923Z,20.70
2022-07-31T12:49:09.210Z,20.70
2022-07-31T12:51:45.637Z,20.70
2022-07-31T12:54:17.651Z,20.70
2022-07-31T12:56:46.305Z,20.50
2022-07-31T12:59:13.544Z,20.50
2022-07-31T13:01:40.596Z,20.50
2022-07-31T13:04:19.103Z,20.50
2022-07-31T13:06:48.797Z,20.60
2022-07-31T13:09:16.052Z,20.70
2022-07-31T13:11:46.427Z,20.70
2022-07-31T13:14:19.616Z,20.70
2022-07-31T13:16:47.979Z,20.70
2022-07-31T13:19:15.496Z,20.90
2022-07-31T13:21:48.967Z,20.80
2022-07-31T13:24:20.934Z,21.00
2022-07-31T13:26:49.035Z,21.10
2022-07-31T13:29:17.017Z,21.00
2022-07-31T13:31:44.311Z,20.90
2022-07-31T13:34:11.997Z,20.80
2022-07-31T13:36:39.985Z,20.70
2022-07-31T13:39:10.775Z,20.60
2022-07-31T13:41:38.975Z,20.60
2022-07-31T13:44:07.353Z,20.50
2022-07-31T13:46:35.855Z,20.50
2022-07-31T13:49:08.174Z,20.60
2022-07-31T13:51:35.792Z,20.60
2022-07-31T13:54:02.782Z,20.60
2022-07-31T13:56:39.253Z,20.60
2022-07-31T13:59:13.515Z,20.60
2022-07-31T14:02:13.233Z,20.60
2022-07-31T14:04:28.541Z,20.50
2022-07-31T14:06:59.304Z,20.40
2022-07-31T14:09:27.977Z,20.40
2022-07-31T14:11:56.113Z,20.50
2022-07-31T14:14:23.589Z,20.60
2022-07-31T14:16:51.023Z,20.60
2022-07-31T14:19:18.167Z,20.50
2022-07-31T14:21:56.142Z,20.60
2022-07-31T14:24:23.543Z,20.50
2022-07-31T14:26:50.391Z,20.40
2022-07-31T14:29:17.341Z,20.40
2022-07-31T14:31:44.202Z,20.40
2022-07-31T14:34:11.098Z,20.40
2022-07-31T14:36:37.989Z,20.40
2022-07-31T14:39:04.900Z,20.50
2022-07-31T14:41:31.762Z,20.60
2022-07-31T14:43:58.633Z,20.70
2022-07-31T14:46:25.585Z,20.70
2022-07-31T14:48:52.566Z,20.80
2022-07-31T14:51:20.266Z,20.90
2022-07-31T14:53:47.475Z,20.80
2022-07-31T14:56:17.275Z,20.90
2022-07-31T14:58:58.387Z,20.90
2022-07-31T15:01:30.397Z,20.80
2022-07-31T15:03:58.204Z,20.70
2022-07-31T15:06:41.398Z,20.80
2022-07-31T15:09:12.561Z,20.80
2022-07-31T15:11:59.397Z,20.80
2022-07-31T15:14:29.309Z,20.70
2022-07-31T15:16:56.286Z,20.80
2022-07-31T15:19:23.146Z,20.80
2022-07-31T15:22:10.931Z,20.80
2022-07-31T15:24:39.232Z,20.90
2022-07-31T15:27:09.316Z,21.20
2022-07-31T15:30:04.047Z,21.50
2022-07-31T15:32:23.016Z,22.10
2022-07-31T15:34:49.879Z,22.70
2022-07-31T15:37:20.504Z,22.70
2022-07-31T15:40:02.638Z,22.40
2022-07-31T15:42:37.992Z,22.10
2022-07-31T15:45:05.559Z,22.60
2022-07-31T15:47:32.434Z,22.80
2022-07-31T15:49:59.296Z,23.30
2022-07-31T15:52:26.354Z,23.50
2022-07-31T15:54:53.491Z,23.70
2022-07-31T15:57:21.308Z,24.30
2022-07-31T15:59:49.574Z,24.80
2022-07-31T16:02:16.679Z,25.00
2022-07-31T16:04:52.933Z,25.30
2022-07-31T16:08:30.614Z,25.40
2022-07-31T16:10:17.240Z,25.10
2022-07-31T16:12:48.613Z,24.60
2022-07-31T16:15:16.836Z,24.80
2022-07-31T16:17:44.463Z,25.10
2022-07-31T16:20:25.877Z,25.20
2022-07-31T16:23:01.520Z,25.40
2022-07-31T16:25:32.237Z,25.40
2022-07-31T16:28:03.719Z,25.40
2022-07-31T16:30:31.665Z,25.10
2022-07-31T16:32:58.605Z,25.50
2022-07-31T16:35:28.696Z,26.00
2022-07-31T16:37:55.572Z,26.30
2022-07-31T16:40:28.042Z,26.50
2022-07-31T16:42:56.467Z,26.60
2022-07-31T16:45:23.726Z,26.20
2022-07-31T16:47:52.216Z,26.10
2022-07-31T16:50:19.387Z,26.40
2022-07-31T16:52:46.227Z,26.40
2022-07-31T16:55:13.108Z,26.70
2022-07-31T16:57:39.989Z,26.70
2022-07-31T17:00:07.740Z,26.60
2022-07-31T17:02:34.607Z,26.60
2022-07-31T17:05:01.531Z,26.80
2022-07-31T17:07:28.571Z,27.10
2022-07-31T17:09:55.478Z,27.10
2022-07-31T17:12:22.386Z,26.90
2022-07-31T17:14:49.818Z,26.90
2022-07-31T17:17:18.860Z,27.00
2022-07-31T17:19:47.416Z,26.90
2022-07-31T17:22:16.220Z,26.60
2022-07-31T17:24:50.172Z,26.80
2022-07-31T17:27:17.718Z,26.60
2022-07-31T17:29:44.658Z,26.80
2022-07-31T17:32:11.679Z,27.10
2022-07-31T17:34:39.094Z,27.00
2022-07-31T17:37:07.458Z,26.80
2022-07-31T17:39:35.244Z,27.00
2022-07-31T17:42:02.130Z,27.20
2022-07-31T17:44:29.717Z,27.10
2022-07-31T17:47:03.429Z,26.90
2022-07-31T17:49:32.405Z,26.40
2022-07-31T17:52:00.372Z,25.70
2022-07-31T17:54:28.845Z,25.20
2022-07-31T17:56:55.945Z,24.60
2022-07-31T17:59:23.287Z,24.10
2022-07-31T18:01:52.242Z,23.70
2022-07-31T18:04:21.166Z,23.50
2022-07-31T18:06:54.234Z,23.30
2022-07-31T18:09:23.434Z,23.10
2022-07-31T18:11:51.686Z,22.90
2022-07-31T18:14:19.029Z,22.70
2022-07-31T18:16:46.859Z,22.70
2022-07-31T18:19:14.067Z,22.90
2022-07-31T18:21:41.077Z,23.20
2022-07-31T18:24:08.491Z,23.40
2022-07-31T18:26:36.080Z,23.70
2022-07-31T18:29:03.561Z,23.80
2022-07-31T18:31:31.782Z,23.50
2022-07-31T18:34:02.601Z,23.10
2022-07-31T18:36:29.475Z,22.70
2022-07-31T18:38:57.659Z,22.30
2022-07-31T18:41:25.070Z,22.10
2022-07-31T18:43:52.026Z,21.80
2022-07-31T18:46:20.174Z,21.50
2022-07-31T18:48:50.674Z,21.30
2022-07-31T18:51:23.106Z,21.00
2022-07-31T18:53:50.321Z,20.80
2022-07-31T18:56:17.456Z,20.60
2022-07-31T18:58:44.667Z,20.30
2022-07-31T19:01:11.594Z,20.10
2022-07-31T19:03:38.452Z,20.00
2022-07-31T19:06:05.535Z,19.80
2022-07-31T19:08:32.419Z,19.70
2022-07-31T19:10:59.439Z,19.50
2022-07-31T19:13:26.453Z,19.40
2022-07-31T19:15:53.404Z,19.20
2022-07-31T19:18:23.398Z,19.10
2022-07-31T19:21:22.805Z,19.00
2022-07-31T19:23:43.966Z,18.80
2022-07-31T19:26:11.156Z,18.60
2022-07-31T19:28:39.798Z,18.50
2022-07-31T19:31:07.451Z,18.40
2022-07-31T19:33:35.030Z,18.30
2022-07-31T19:36:03.239Z,18.20
2022-07-31T19:38:31.662Z,18.00
2022-07-31T19:40:59.050Z,17.90
2022-07-31T19:43:26.055Z,17.90
2022-07-31T19:46:10.371Z,17.80
2022-07-31T19:48:43.953Z,17.70
2022-07-31T19:51:12.385Z,17.60
2022-07-31T19:53:39.654Z,17.50
2022-07-31T19:56:06.906Z,17.40
2022-07-31T19:58:35.445Z,17.30
2022-07-31T20:01:06.754Z,17.20
2022-07-31T20:03:33.990Z,17.10
2022-07-31T20:06:01.730Z,17.00
2022-07-31T20:08:32.953Z,16.90
2022-07-31T20:11:03.465Z,16.70
2022-07-31T20:13:37.700Z,16.60
2022-07-31T20:16:04.993Z,16.60
2022-07-31T20:18:32.082Z,16.50
2022-07-31T20:21:06.902Z,16.30
2022-07-31T20:23:38.098Z,16.30
2022-07-31T20:26:06.458Z,16.20
2022-07-31T20:28:33.458Z,16.10
2022-07-31T20:31:00.613Z,16.10
2022-07-31T20:33:27.891Z,16.00
2022-07-31T20:35:54.756Z,16.00
2022-07-31T20:38:23.064Z,15.90
2022-07-31T20:40:53.923Z,15.80
2022-07-31T20:43:27.061Z,15.80
2022-07-31T20:45:57.572Z,15.70
2022-07-31T20:48:31.122Z,15.70
2022-07-31T20:50:59.289Z,15.60
2022-07-31T20:53:26.769Z,15.50
2022-07-31T20:55:53.854Z,15.50
2022-07-31T20:58:22.576Z,15.40
2022-07-31T21:00:50.755Z,15.30
2022-07-31T21:03:18.699Z,15.30
2022-07-31T21:05:46.631Z,15.30
2022-07-31T21:08:13.904Z,15.20
2022-07-31T21:10:41.000Z,15.20
2022-07-31T21:13:09.148Z,15.10
2022-07-31T21:15:43.035Z,15.10
2022-07-31T21:18:16.267Z,15.00
2022-07-31T21:20:51.774Z,15.00
2022-07-31T21:23:24.961Z,15.00
2022-07-31T21:25:56.540Z,14.90
2022-07-31T21:28:25.027Z,14.80
2022-07-31T21:30:56.203Z,14.80
2022-07-31T21:33:27.372Z,14.80
2022-07-31T21:35:57.524Z,14.70
2022-07-31T21:38:25.028Z,14.70
2022-07-31T21:40:53.833Z,14.70
2022-07-31T21:43:22.153Z,14.70
2022-07-31T21:45:57.469Z,14.60
2022-07-31T21:48:30.369Z,14.60
2022-07-31T21:50:58.634Z,14.60
2022-07-31T21:53:25.575Z,14.50
2022-07-31T21:55:52.473Z,14.50
2022-07-31T21:58:19.325Z,14.50
2022-07-31T22:00:46.230Z,14.40
2022-07-31T22:03:13.199Z,14.40
2022-07-31T22:05:58.599Z,14.30
2022-07-31T22:08:25.768Z,14.30
2022-07-31T22:10:52.944Z,14.20
2022-07-31T22:13:20.214Z,14.30
2022-07-31T22:15:55.586Z,14.20
2022-07-31T22:18:34.281Z,14.20
2022-07-31T22:21:04.513Z,14.20
2022-07-31T22:23:31.893Z,14.10
2022-07-31T22:25:59.534Z,14.00
2022-07-31T22:28:27.964Z,14.00
2022-07-31T22:30:56.100Z,13.90
2022-07-31T22:33:23.536Z,13.80
2022-07-31T22:35:59.596Z,13.80
2022-07-31T22:38:30.002Z,13.80
2022-07-31T22:40:58.978Z,13.70
2022-07-31T22:44:10.877Z,13.70
2022-07-31T22:46:13.810Z,13.60
2022-07-31T22:48:41.249Z,13.60
2022-07-31T22:51:09.139Z,13.50
2022-07-31T22:53:39.668Z,13.50
2022-07-31T22:56:06.516Z,13.40
2022-07-31T22:58:33.515Z,13.40
2022-07-31T23:01:00.424Z,13.40
2022-07-31T23:03:27.324Z,13.40
2022-07-31T23:06:02.925Z,13.30
2022-07-31T23:08:50.676Z,13.30
2022-07-31T23:11:22.219Z,13.30
2022-07-31T23:13:49.070Z,13.30
2022-07-31T23:16:15.964Z,13.20
2022-07-31T23:18:42.899Z,13.20
2022-07-31T23:21:09.805Z,13.20
2022-07-31T23:23:37.470Z,13.10
2022-07-31T23:26:04.343Z,13.20
2022-07-31T23:28:31.238Z,13.20
2022-07-31T23:30:58.193Z,13.20
2022-07-31T23:33:25.040Z,13.20
2022-07-31T23:35:51.865Z,13.10
2022-07-31T23:38:18.758Z,13.10
2022-07-31T23:40:45.653Z,13.10
2022-07-31T23:43:12.486Z,13.10
2022-07-31T23:45:39.491Z,13.10
2022-07-31T23:48:07.858Z,13.00
2022-07-31T23:50:41.819Z,13.00
2022-07-31T23:53:08.807Z,13.00
2022-07-31T23:55:38.486Z,13.00
2022-07-31T23:58:10.063Z,13.00
